sensor_id;sensor_type;location;lat;lon;timestamp;pressure;altitude;pressure_sealevel;temperature;humidity
10881;BME280;5493;48.884;8.338;2022-12-29T00:01:26;99644.34;;;14.56;100.00
10881;BME280;5493;48.884;8.338;2022-12-29T00:03:52;99626.94;;;14.52;100.00
10881;BME280;5493;48.884;8.338;2022-12-29T00:06:19;99599.81;;;14.52;100.00
10881;BME280;5493;48.884;8.338;2022-12-29T00:08:45;99619.63;;;14.53;100.00
10881;BME280;5493;48.884;8.338;2022-12-29T00:11:13;99625.81;;;14.43;100.00
10881;BME280;5493;48.884;8.338;2022-12-29T00:13:40;99631.69;;;14.72;100.00
10881;BME280;5493;48.884;8.338;2022-12-29T00:16:26;99618.31;;;14.60;100.00
10881;BME280;5493;48.884;8.338;2022-12-29T00:18:52;99644.16;;;14.36;100.00
10881;BME280;5493;48.884;8.338;2022-12-29T00:21:21;99648.69;;;14.57;100.00
10881;BME280;5493;48.884;8.338;2022-12-29T00:24:06;99637.53;;;14.54;100.00
10881;BME280;5493;48.884;8.338;2022-12-29T00:26:58;99642.09;;;14.48;100.00
10881;BME280;5493;48.884;8.338;2022-12-29T00:29:51;99650.31;;;14.26;100.00
10881;BME280;5493;48.884;8.338;2022-12-29T00:32:37;99656.31;;;14.34;100.00
10881;BME280;5493;48.884;8.338;2022-12-29T00:35:25;99657.03;;;14.19;100.00
10881;BME280;5493;48.884;8.338;2022-12-29T00:37:53;99663.25;;;14.19;100.00
10881;BME280;5493;48.884;8.338;2022-12-29T00:40:39;99657.06;;;14.24;100.00
10881;BME280;5493;48.884;8.338;2022-12-29T00:43:24;99653.69;;;14.07;100.00
10881;BME280;5493;48.884;8.338;2022-12-29T00:46:08;99663.84;;;13.95;100.00
10881;BME280;5493;48.884;8.338;2022-12-29T00:48:36;99668.84;;;14.08;100.00
10881;BME280;5493;48.884;8.338;2022-12-29T00:51:20;99670.13;;;14.00;100.00
10881;BME280;5493;48.884;8.338;2022-12-29T00:53:46;99671.53;;;14.03;100.00
10881;BME280;5493;48.884;8.338;2022-12-29T00:56:13;99672.00;;;13.95;100.00
10881;BME280;5493;48.884;8.338;2022-12-29T00:58:39;99672.50;;;13.92;100.00
10881;BME280;5493;48.884;8.338;2022-12-29T01:01:07;99665.91;;;13.82;100.00
10881;BME280;5493;48.884;8.338;2022-12-29T01:03:37;99678.69;;;13.87;100.00
10881;BME280;5493;48.884;8.338;2022-12-29T01:06:06;99680.34;;;13.88;100.00
10881;BME280;5493;48.884;8.338;2022-12-29T01:08:32;99681.53;;;13.75;100.00
10881;BME280;5493;48.884;8.338;2022-12-29T01:11:00;99686.00;;;13.60;100.00
10881;BME280;5493;48.884;8.338;2022-12-29T01:13:25;99682.38;;;13.76;100.00
10881;BME280;5493;48.884;8.338;2022-12-29T01:15:53;99674.75;;;13.73;100.00
10881;BME280;5493;48.884;8.338;2022-12-29T01:18:20;99685.81;;;13.71;100.00
10881;BME280;5493;48.884;8.338;2022-12-29T01:20:49;99684.38;;;13.64;100.00
10881;BME280;5493;48.884;8.338;2022-12-29T01:23:16;99670.50;;;13.82;100.00
10881;BME280;5493;48.884;8.338;2022-12-29T01:25:42;99678.38;;;13.84;100.00
10881;BME280;5493;48.884;8.338;2022-12-29T01:28:09;99674.53;;;13.79;100.00
10881;BME280;5493;48.884;8.338;2022-12-29T01:30:35;99663.66;;;13.74;100.00
10881;BME280;5493;48.884;8.338;2022-12-29T01:33:02;99662.94;;;13.84;100.00
10881;BME280;5493;48.884;8.338;2022-12-29T01:35:28;99673.72;;;13.79;100.00
10881;BME280;5493;48.884;8.338;2022-12-29T01:37:56;99657.75;;;13.82;100.00
10881;BME280;5493;48.884;8.338;2022-12-29T01:40:22;99639.63;;;13.83;100.00
10881;BME280;5493;48.884;8.338;2022-12-29T01:42:49;99657.06;;;13.92;100.00
10881;BME280;5493;48.884;8.338;2022-12-29T01:45:16;99663.25;;;13.88;100.00
10881;BME280;5493;48.884;8.338;2022-12-29T01:47:46;99660.75;;;13.81;100.00
10881;BME280;5493;48.884;8.338;2022-12-29T01:50:18;99664.06;;;13.88;100.00
10881;BME280;5493;48.884;8.338;2022-12-29T01:52:51;99660.09;;;13.96;100.00
10881;BME280;5493;48.884;8.338;2022-12-29T01:55:22;99668.09;;;13.86;100.00
10881;BME280;5493;48.884;8.338;2022-12-29T01:57:51;99660.47;;;13.82;100.00
10881;BME280;5493;48.884;8.338;2022-12-29T02:00:19;99660.31;;;13.94;100.00
10881;BME280;5493;48.884;8.338;2022-12-29T02:02:47;99658.69;;;13.93;100.00
10881;BME280;5493;48.884;8.338;2022-12-29T02:05:20;99655.94;;;13.88;100.00
10881;BME280;5493;48.884;8.338;2022-12-29T02:07:50;99660.38;;;13.99;100.00
10881;BME280;5493;48.884;8.338;2022-12-29T02:10:18;99655.63;;;13.85;100.00
10881;BME280;5493;48.884;8.338;2022-12-29T02:12:47;99653.22;;;13.88;100.00
10881;BME280;5493;48.884;8.338;2022-12-29T02:15:15;99645.56;;;13.80;100.00
10881;BME280;5493;48.884;8.338;2022-12-29T02:17:53;99644.84;;;13.90;100.00
10881;BME280;5493;48.884;8.338;2022-12-29T02:20:42;99642.63;;;13.87;100.00
10881;BME280;5493;48.884;8.338;2022-12-29T02:23:30;99647.66;;;14.00;100.00
10881;BME280;5493;48.884;8.338;2022-12-29T02:26:16;99629.53;;;13.78;100.00
10881;BME280;5493;48.884;8.338;2022-12-29T02:29:16;99652.78;;;13.96;100.00
10881;BME280;5493;48.884;8.338;2022-12-29T02:31:46;99649.53;;;13.99;100.00
10881;BME280;5493;48.884;8.338;2022-12-29T02:34:22;99648.97;;;13.97;100.00
10881;BME280;5493;48.884;8.338;2022-12-29T02:37:00;99645.63;;;13.85;100.00
10881;BME280;5493;48.884;8.338;2022-12-29T02:39:34;99649.41;;;14.16;100.00
10881;BME280;5493;48.884;8.338;2022-12-29T02:42:09;99634.09;;;14.00;100.00
10881;BME280;5493;48.884;8.338;2022-12-29T02:44:46;99649.03;;;14.02;100.00
10881;BME280;5493;48.884;8.338;2022-12-29T02:47:22;99624.41;;;14.09;100.00
10881;BME280;5493;48.884;8.338;2022-12-29T02:49:57;99627.66;;;14.11;100.00
10881;BME280;5493;48.884;8.338;2022-12-29T02:52:30;99611.50;;;14.21;100.00
10881;BME280;5493;48.884;8.338;2022-12-29T02:54:58;99603.56;;;14.14;100.00
10881;BME280;5493;48.884;8.338;2022-12-29T02:57:33;99596.31;;;14.20;100.00
10881;BME280;5493;48.884;8.338;2022-12-29T03:00:04;99607.31;;;14.03;100.00
10881;BME280;5493;48.884;8.338;2022-12-29T03:02:56;99609.09;;;14.24;100.00
10881;BME280;5493;48.884;8.338;2022-12-29T03:05:41;99613.91;;;14.17;100.00
10881;BME280;5493;48.884;8.338;2022-12-29T03:08:22;99613.41;;;14.20;100.00
10881;BME280;5493;48.884;8.338;2022-12-29T03:10:55;99608.41;;;14.07;100.00
10881;BME280;5493;48.884;8.338;2022-12-29T03:13:28;99612.41;;;14.32;100.00
10881;BME280;5493;48.884;8.338;2022-12-29T03:16:21;99607.22;;;14.30;100.00
10881;BME280;5493;48.884;8.338;2022-12-29T03:18:56;99600.16;;;14.29;100.00
10881;BME280;5493;48.884;8.338;2022-12-29T03:21:31;99603.06;;;14.17;100.00
10881;BME280;5493;48.884;8.338;2022-12-29T03:24:32;99608.38;;;14.34;100.00
10881;BME280;5493;48.884;8.338;2022-12-29T03:27:05;99610.84;;;14.09;100.00
10881;BME280;5493;48.884;8.338;2022-12-29T03:29:35;99600.38;;;14.22;100.00
10881;BME280;5493;48.884;8.338;2022-12-29T03:32:05;99600.91;;;14.19;100.00
10881;BME280;5493;48.884;8.338;2022-12-29T03:34:34;99602.03;;;14.23;100.00
10881;BME280;5493;48.884;8.338;2022-12-29T03:37:05;99587.50;;;14.35;100.00
10881;BME280;5493;48.884;8.338;2022-12-29T03:39:33;99592.81;;;14.24;100.00
10881;BME280;5493;48.884;8.338;2022-12-29T03:42:02;99587.63;;;14.18;100.00
10881;BME280;5493;48.884;8.338;2022-12-29T03:44:35;99597.81;;;14.06;100.00
10881;BME280;5493;48.884;8.338;2022-12-29T03:47:02;99575.31;;;14.05;100.00
10881;BME280;5493;48.884;8.338;2022-12-29T03:49:29;99570.16;;;14.04;100.00
10881;BME280;5493;48.884;8.338;2022-12-29T03:51:57;99585.41;;;14.15;100.00
10881;BME280;5493;48.884;8.338;2022-12-29T03:54:24;99568.94;;;14.21;100.00
10881;BME280;5493;48.884;8.338;2022-12-29T03:56:50;99553.88;;;14.04;100.00
10881;BME280;5493;48.884;8.338;2022-12-29T03:59:17;99550.56;;;14.28;100.00
10881;BME280;5493;48.884;8.338;2022-12-29T04:01:43;99554.75;;;14.09;100.00
10881;BME280;5493;48.884;8.338;2022-12-29T04:04:10;99543.13;;;14.14;100.00
10881;BME280;5493;48.884;8.338;2022-12-29T04:06:36;99535.78;;;14.14;100.00
10881;BME280;5493;48.884;8.338;2022-12-29T04:09:04;99534.19;;;14.18;100.00
10881;BME280;5493;48.884;8.338;2022-12-29T04:11:31;99541.09;;;13.94;100.00
10881;BME280;5493;48.884;8.338;2022-12-29T04:13:58;99547.66;;;14.03;100.00
10881;BME280;5493;48.884;8.338;2022-12-29T04:16:24;99546.63;;;14.09;100.00
10881;BME280;5493;48.884;8.338;2022-12-29T04:18:51;99530.66;;;14.13;100.00
10881;BME280;5493;48.884;8.338;2022-12-29T04:21:17;99531.31;;;13.93;100.00
10881;BME280;5493;48.884;8.338;2022-12-29T04:23:44;99527.06;;;14.07;100.00
10881;BME280;5493;48.884;8.338;2022-12-29T04:26:11;99544.75;;;14.15;100.00
10881;BME280;5493;48.884;8.338;2022-12-29T04:28:38;99523.34;;;14.18;100.00
10881;BME280;5493;48.884;8.338;2022-12-29T04:31:05;99533.81;;;14.00;100.00
10881;BME280;5493;48.884;8.338;2022-12-29T04:33:31;99556.28;;;14.00;100.00
10881;BME280;5493;48.884;8.338;2022-12-29T04:35:58;99535.41;;;13.96;100.00
10881;BME280;5493;48.884;8.338;2022-12-29T04:38:24;99543.84;;;13.99;100.00
10881;BME280;5493;48.884;8.338;2022-12-29T04:40:51;99546.34;;;14.11;100.00
10881;BME280;5493;48.884;8.338;2022-12-29T04:43:19;99546.38;;;14.16;100.00
10881;BME280;5493;48.884;8.338;2022-12-29T04:45:47;99541.16;;;14.04;100.00
10881;BME280;5493;48.884;8.338;2022-12-29T04:48:14;99541.66;;;13.96;100.00
10881;BME280;5493;48.884;8.338;2022-12-29T04:50:41;99544.38;;;14.01;100.00
10881;BME280;5493;48.884;8.338;2022-12-29T04:53:08;99540.09;;;14.05;100.00
10881;BME280;5493;48.884;8.338;2022-12-29T04:55:34;99523.34;;;14.13;100.00
10881;BME280;5493;48.884;8.338;2022-12-29T04:58:01;99533.66;;;14.16;100.00
10881;BME280;5493;48.884;8.338;2022-12-29T05:00:29;99535.25;;;14.12;100.00
10881;BME280;5493;48.884;8.338;2022-12-29T05:02:55;99531.03;;;14.32;100.00
10881;BME280;5493;48.884;8.338;2022-12-29T05:05:22;99538.72;;;14.40;100.00
10881;BME280;5493;48.884;8.338;2022-12-29T05:07:48;99530.13;;;14.16;100.00
10881;BME280;5493;48.884;8.338;2022-12-29T05:10:15;99526.44;;;14.32;100.00
10881;BME280;5493;48.884;8.338;2022-12-29T05:12:42;99538.03;;;14.22;100.00
10881;BME280;5493;48.884;8.338;2022-12-29T05:15:09;99522.88;;;14.26;100.00
10881;BME280;5493;48.884;8.338;2022-12-29T05:17:37;99517.13;;;14.18;100.00
10881;BME280;5493;48.884;8.338;2022-12-29T05:20:05;99518.56;;;14.30;100.00
10881;BME280;5493;48.884;8.338;2022-12-29T05:22:32;99526.66;;;14.25;100.00
10881;BME280;5493;48.884;8.338;2022-12-29T05:24:59;99516.25;;;14.49;100.00
10881;BME280;5493;48.884;8.338;2022-12-29T05:27:25;99513.00;;;14.52;100.00
10881;BME280;5493;48.884;8.338;2022-12-29T05:29:52;99516.53;;;14.53;100.00
10881;BME280;5493;48.884;8.338;2022-12-29T05:32:19;99501.53;;;14.35;100.00
10881;BME280;5493;48.884;8.338;2022-12-29T05:34:47;99478.41;;;14.32;100.00
10881;BME280;5493;48.884;8.338;2022-12-29T05:37:13;99496.69;;;14.42;100.00
10881;BME280;5493;48.884;8.338;2022-12-29T05:39:40;99492.09;;;14.43;100.00
10881;BME280;5493;48.884;8.338;2022-12-29T05:42:06;99499.44;;;14.52;100.00
10881;BME280;5493;48.884;8.338;2022-12-29T05:44:33;99508.84;;;14.35;100.00
10881;BME280;5493;48.884;8.338;2022-12-29T05:46:59;99512.69;;;14.44;100.00
10881;BME280;5493;48.884;8.338;2022-12-29T05:49:26;99495.94;;;14.62;100.00
10881;BME280;5493;48.884;8.338;2022-12-29T05:51:54;99486.91;;;14.41;100.00
10881;BME280;5493;48.884;8.338;2022-12-29T05:54:21;99508.25;;;14.32;100.00
10881;BME280;5493;48.884;8.338;2022-12-29T05:56:48;99521.53;;;14.29;100.00
10881;BME280;5493;48.884;8.338;2022-12-29T05:59:14;99501.47;;;14.30;100.00
10881;BME280;5493;48.884;8.338;2022-12-29T06:01:41;99490.91;;;14.34;100.00
10881;BME280;5493;48.884;8.338;2022-12-29T06:04:07;99508.13;;;14.49;100.00
10881;BME280;5493;48.884;8.338;2022-12-29T06:06:34;99508.38;;;14.48;100.00
10881;BME280;5493;48.884;8.338;2022-12-29T06:09:02;99511.91;;;14.48;100.00
10881;BME280;5493;48.884;8.338;2022-12-29T06:11:28;99518.63;;;14.41;100.00
10881;BME280;5493;48.884;8.338;2022-12-29T06:13:55;99510.53;;;14.46;100.00
10881;BME280;5493;48.884;8.338;2022-12-29T06:16:21;99521.44;;;14.56;100.00
10881;BME280;5493;48.884;8.338;2022-12-29T06:18:48;99531.75;;;14.54;100.00
10881;BME280;5493;48.884;8.338;2022-12-29T06:21:14;99486.09;;;14.41;100.00
10881;BME280;5493;48.884;8.338;2022-12-29T06:23:41;99525.22;;;14.55;100.00
10881;BME280;5493;48.884;8.338;2022-12-29T06:26:09;99516.31;;;14.59;100.00
10881;BME280;5493;48.884;8.338;2022-12-29T06:28:35;99499.19;;;14.54;100.00
10881;BME280;5493;48.884;8.338;2022-12-29T06:31:02;99503.59;;;14.65;100.00
10881;BME280;5493;48.884;8.338;2022-12-29T06:33:28;99493.03;;;14.73;100.00
10881;BME280;5493;48.884;8.338;2022-12-29T06:35:55;99478.94;;;14.82;100.00
10881;BME280;5493;48.884;8.338;2022-12-29T06:38:21;99476.13;;;14.56;100.00
10881;BME280;5493;48.884;8.338;2022-12-29T06:40:48;99473.47;;;14.66;100.00
10881;BME280;5493;48.884;8.338;2022-12-29T06:43:16;99457.97;;;14.57;100.00
10881;BME280;5493;48.884;8.338;2022-12-29T06:45:43;99461.25;;;14.64;100.00
10881;BME280;5493;48.884;8.338;2022-12-29T06:48:09;99464.56;;;14.81;100.00
10881;BME280;5493;48.884;8.338;2022-12-29T06:50:36;99472.44;;;14.83;100.00
10881;BME280;5493;48.884;8.338;2022-12-29T06:53:02;99457.50;;;14.75;100.00
10881;BME280;5493;48.884;8.338;2022-12-29T06:55:29;99481.38;;;14.83;100.00
10881;BME280;5493;48.884;8.338;2022-12-29T06:57:57;99488.19;;;14.91;100.00
10881;BME280;5493;48.884;8.338;2022-12-29T07:00:25;99480.28;;;14.84;100.00
10881;BME280;5493;48.884;8.338;2022-12-29T07:02:51;99486.31;;;14.96;100.00
10881;BME280;5493;48.884;8.338;2022-12-29T07:05:18;99469.47;;;14.89;100.00
10881;BME280;5493;48.884;8.338;2022-12-29T07:07:44;99480.03;;;14.91;100.00
10881;BME280;5493;48.884;8.338;2022-12-29T07:10:11;99485.78;;;15.09;100.00
10881;BME280;5493;48.884;8.338;2022-12-29T07:12:38;99490.94;;;15.01;100.00
10881;BME280;5493;48.884;8.338;2022-12-29T07:15:05;99485.47;;;14.86;100.00
10881;BME280;5493;48.884;8.338;2022-12-29T07:17:33;99488.69;;;14.77;100.00
10881;BME280;5493;48.884;8.338;2022-12-29T07:19:59;99488.22;;;15.01;100.00
10881;BME280;5493;48.884;8.338;2022-12-29T07:22:26;99502.91;;;15.10;100.00
10881;BME280;5493;48.884;8.338;2022-12-29T07:24:52;99502.09;;;15.04;100.00
10881;BME280;5493;48.884;8.338;2022-12-29T07:27:19;99498.03;;;15.12;100.00
10881;BME280;5493;48.884;8.338;2022-12-29T07:29:45;99509.13;;;15.00;100.00
10881;BME280;5493;48.884;8.338;2022-12-29T07:32:12;99495.00;;;15.03;100.00
10881;BME280;5493;48.884;8.338;2022-12-29T07:34:40;99510.22;;;14.99;100.00
10881;BME280;5493;48.884;8.338;2022-12-29T07:37:06;99506.41;;;14.90;100.00
10881;BME280;5493;48.884;8.338;2022-12-29T07:39:33;99493.34;;;14.87;100.00
10881;BME280;5493;48.884;8.338;2022-12-29T07:41:59;99507.97;;;14.81;100.00
10881;BME280;5493;48.884;8.338;2022-12-29T07:44:26;99500.38;;;14.83;100.00
10881;BME280;5493;48.884;8.338;2022-12-29T07:46:52;99510.47;;;14.93;100.00
10881;BME280;5493;48.884;8.338;2022-12-29T07:49:19;99520.25;;;14.99;100.00
10881;BME280;5493;48.884;8.338;2022-12-29T07:51:47;99509.63;;;14.87;100.00
10881;BME280;5493;48.884;8.338;2022-12-29T07:54:13;99507.97;;;14.81;100.00
10881;BME280;5493;48.884;8.338;2022-12-29T07:56:43;99517.75;;;14.87;100.00
10881;BME280;5493;48.884;8.338;2022-12-29T07:59:10;99498.00;;;14.97;100.00
10881;BME280;5493;48.884;8.338;2022-12-29T08:01:37;99508.06;;;15.06;100.00
10881;BME280;5493;48.884;8.338;2022-12-29T08:04:04;99523.25;;;15.12;100.00
10881;BME280;5493;48.884;8.338;2022-12-29T08:06:30;99517.53;;;14.94;100.00
10881;BME280;5493;48.884;8.338;2022-12-29T08:08:58;99530.56;;;14.97;100.00
10881;BME280;5493;48.884;8.338;2022-12-29T08:11:27;99550.66;;;15.06;100.00
10881;BME280;5493;48.884;8.338;2022-12-29T08:13:53;99541.75;;;15.15;100.00
10881;BME280;5493;48.884;8.338;2022-12-29T08:16:20;99557.78;;;15.12;100.00
10881;BME280;5493;48.884;8.338;2022-12-29T08:18:46;99558.84;;;15.16;100.00
10881;BME280;5493;48.884;8.338;2022-12-29T08:21:13;99570.56;;;15.32;100.00
10881;BME280;5493;48.884;8.338;2022-12-29T08:23:39;99562.56;;;14.90;100.00
10881;BME280;5493;48.884;8.338;2022-12-29T08:26:07;99565.22;;;14.79;100.00
10881;BME280;5493;48.884;8.338;2022-12-29T08:28:34;99496.38;;;15.01;100.00
10881;BME280;5493;48.884;8.338;2022-12-29T08:31:01;99579.97;;;14.99;100.00
10881;BME280;5493;48.884;8.338;2022-12-29T08:33:29;99580.25;;;15.02;100.00
10881;BME280;5493;48.884;8.338;2022-12-29T08:35:59;99588.03;;;14.78;100.00
10881;BME280;5493;48.884;8.338;2022-12-29T08:38:27;99586.00;;;15.11;100.00
10881;BME280;5493;48.884;8.338;2022-12-29T08:40:53;99573.16;;;14.91;100.00
10881;BME280;5493;48.884;8.338;2022-12-29T08:43:21;99581.84;;;14.93;100.00
10881;BME280;5493;48.884;8.338;2022-12-29T08:45:48;99588.28;;;14.77;100.00
10881;BME280;5493;48.884;8.338;2022-12-29T08:48:14;99591.41;;;15.01;100.00
10881;BME280;5493;48.884;8.338;2022-12-29T08:50:43;99592.47;;;15.05;100.00
10881;BME280;5493;48.884;8.338;2022-12-29T08:53:10;99586.72;;;14.86;100.00
10881;BME280;5493;48.884;8.338;2022-12-29T08:55:36;99554.84;;;14.66;100.00
10881;BME280;5493;48.884;8.338;2022-12-29T08:58:03;99613.06;;;14.96;100.00
10881;BME280;5493;48.884;8.338;2022-12-29T09:00:31;99593.75;;;14.82;100.00
10881;BME280;5493;48.884;8.338;2022-12-29T09:02:57;99602.13;;;14.75;100.00
10881;BME280;5493;48.884;8.338;2022-12-29T09:05:24;99601.09;;;14.92;100.00
10881;BME280;5493;48.884;8.338;2022-12-29T09:07:50;99595.13;;;14.90;100.00
10881;BME280;5493;48.884;8.338;2022-12-29T09:10:17;99588.72;;;14.59;100.00
10881;BME280;5493;48.884;8.338;2022-12-29T09:12:43;99594.25;;;14.74;100.00
10881;BME280;5493;48.884;8.338;2022-12-29T09:15:10;99608.13;;;14.83;100.00
10881;BME280;5493;48.884;8.338;2022-12-29T09:17:38;99604.69;;;14.97;100.00
10881;BME280;5493;48.884;8.338;2022-12-29T09:20:09;99606.28;;;14.93;100.00
10881;BME280;5493;48.884;8.338;2022-12-29T09:22:36;99599.47;;;14.86;100.00
10881;BME280;5493;48.884;8.338;2022-12-29T09:25:04;99604.94;;;14.96;100.00
10881;BME280;5493;48.884;8.338;2022-12-29T09:27:31;99608.44;;;14.91;100.00
10881;BME280;5493;48.884;8.338;2022-12-29T09:29:58;99601.03;;;14.71;100.00
10881;BME280;5493;48.884;8.338;2022-12-29T09:32:24;99617.88;;;14.84;100.00
10881;BME280;5493;48.884;8.338;2022-12-29T09:34:52;99634.00;;;15.05;100.00
10881;BME280;5493;48.884;8.338;2022-12-29T09:37:18;99618.41;;;14.81;100.00
10881;BME280;5493;48.884;8.338;2022-12-29T09:39:46;99607.03;;;14.78;100.00
10881;BME280;5493;48.884;8.338;2022-12-29T09:42:16;99621.13;;;14.81;100.00
10881;BME280;5493;48.884;8.338;2022-12-29T09:44:58;99582.38;;;14.90;100.00
10881;BME280;5493;48.884;8.338;2022-12-29T09:47:28;99627.75;;;15.05;100.00
10881;BME280;5493;48.884;8.338;2022-12-29T09:50:01;99626.19;;;15.14;100.00
10881;BME280;5493;48.884;8.338;2022-12-29T09:52:32;99619.50;;;14.79;100.00
10881;BME280;5493;48.884;8.338;2022-12-29T09:55:03;99635.53;;;14.81;100.00
10881;BME280;5493;48.884;8.338;2022-12-29T09:57:35;99635.53;;;14.81;100.00
10881;BME280;5493;48.884;8.338;2022-12-29T10:00:12;99650.09;;;15.17;100.00
10881;BME280;5493;48.884;8.338;2022-12-29T10:02:42;99629.69;;;15.04;100.00
10881;BME280;5493;48.884;8.338;2022-12-29T10:05:30;99634.88;;;15.11;100.00
10881;BME280;5493;48.884;8.338;2022-12-29T10:08:14;99597.72;;;14.64;100.00
10881;BME280;5493;48.884;8.338;2022-12-29T10:10:48;99582.09;;;14.87;100.00
10881;BME280;5493;48.884;8.338;2022-12-29T10:13:28;99632.44;;;15.14;100.00
10881;BME280;5493;48.884;8.338;2022-12-29T10:16:01;99635.75;;;15.32;100.00
10881;BME280;5493;48.884;8.338;2022-12-29T10:18:52;99639.88;;;15.39;100.00
10881;BME280;5493;48.884;8.338;2022-12-29T10:21:33;99658.38;;;15.47;100.00
10881;BME280;5493;48.884;8.338;2022-12-29T10:24:06;99639.97;;;15.02;100.00
10881;BME280;5493;48.884;8.338;2022-12-29T10:26:38;99650.66;;;15.19;100.00
10881;BME280;5493;48.884;8.338;2022-12-29T10:29:08;99650.31;;;15.05;100.00
10881;BME280;5493;48.884;8.338;2022-12-29T10:31:42;99653.25;;;14.99;100.00
10881;BME280;5493;48.884;8.338;2022-12-29T10:34:15;99651.16;;;15.16;100.00
10881;BME280;5493;48.884;8.338;2022-12-29T10:36:47;99668.13;;;15.48;100.00
10881;BME280;5493;48.884;8.338;2022-12-29T10:39:20;99660.09;;;15.06;100.00
10881;BME280;5493;48.884;8.338;2022-12-29T10:41:51;99657.38;;;15.06;100.00
10881;BME280;5493;48.884;8.338;2022-12-29T10:44:19;99665.03;;;15.19;100.00
10881;BME280;5493;48.884;8.338;2022-12-29T10:46:54;99650.78;;;14.92;100.00
10881;BME280;5493;48.884;8.338;2022-12-29T10:49:24;99645.88;;;14.89;100.00
10881;BME280;5493;48.884;8.338;2022-12-29T10:51:56;99627.88;;;14.73;100.00
10881;BME280;5493;48.884;8.338;2022-12-29T10:54:27;99676.28;;;14.86;100.00
10881;BME280;5493;48.884;8.338;2022-12-29T10:57:00;99645.50;;;14.70;100.00
10881;BME280;5493;48.884;8.338;2022-12-29T10:59:29;99658.31;;;14.80;100.00
10881;BME280;5493;48.884;8.338;2022-12-29T11:02:00;99658.06;;;14.82;100.00
10881;BME280;5493;48.884;8.338;2022-12-29T11:04:42;99641.72;;;14.76;100.00
10881;BME280;5493;48.884;8.338;2022-12-29T11:07:16;99658.38;;;14.90;100.00
10881;BME280;5493;48.884;8.338;2022-12-29T11:09:44;99634.41;;;14.72;100.00
10881;BME280;5493;48.884;8.338;2022-12-29T11:12:23;99647.81;;;14.94;100.00
10881;BME280;5493;48.884;8.338;2022-12-29T11:15:06;99640.22;;;14.96;100.00
10881;BME280;5493;48.884;8.338;2022-12-29T11:17:43;99653.97;;;14.79;100.00
10881;BME280;5493;48.884;8.338;2022-12-29T11:20:30;99655.97;;;14.94;100.00
10881;BME280;5493;48.884;8.338;2022-12-29T11:22:59;99645.59;;;14.86;100.00
10881;BME280;5493;48.884;8.338;2022-12-29T11:25:26;99651.16;;;15.16;100.00
10881;BME280;5493;48.884;8.338;2022-12-29T11:27:58;99658.38;;;14.90;100.00
10881;BME280;5493;48.884;8.338;2022-12-29T11:30:27;99655.97;;;14.99;100.00
10881;BME280;5493;48.884;8.338;2022-12-29T11:32:56;99663.88;;;15.05;100.00
10881;BME280;5493;48.884;8.338;2022-12-29T11:35:31;99664.81;;;15.31;100.00
10881;BME280;5493;48.884;8.338;2022-12-29T11:38:00;99676.75;;;15.25;100.00
10881;BME280;5493;48.884;8.338;2022-12-29T11:40:28;99607.09;;;14.94;100.00
10881;BME280;5493;48.884;8.338;2022-12-29T11:42:57;99660.66;;;15.13;100.00
10881;BME280;5493;48.884;8.338;2022-12-29T11:45:26;99672.59;;;15.12;100.00
10881;BME280;5493;48.884;8.338;2022-12-29T11:47:57;99668.31;;;15.26;100.00
10881;BME280;5493;48.884;8.338;2022-12-29T11:50:26;99667.53;;;15.26;100.00
10881;BME280;5493;48.884;8.338;2022-12-29T11:52:59;99669.44;;;15.31;100.00
10881;BME280;5493;48.884;8.338;2022-12-29T11:55:28;99644.06;;;15.05;100.00
10881;BME280;5493;48.884;8.338;2022-12-29T11:57:57;99659.84;;;15.13;100.00
10881;BME280;5493;48.884;8.338;2022-12-29T12:00:27;99658.97;;;15.02;100.00
10881;BME280;5493;48.884;8.338;2022-12-29T12:02:57;99657.81;;;14.88;100.00
10881;BME280;5493;48.884;8.338;2022-12-29T12:05:30;99645.59;;;14.86;100.00
10881;BME280;5493;48.884;8.338;2022-12-29T12:08:05;99639.34;;;14.85;100.00
10881;BME280;5493;48.884;8.338;2022-12-29T12:10:39;99654.19;;;14.72;100.00
10881;BME280;5493;48.884;8.338;2022-12-29T12:13:18;99625.03;;;15.05;100.00
10881;BME280;5493;48.884;8.338;2022-12-29T12:15:51;99643.13;;;14.79;100.00
10881;BME280;5493;48.884;8.338;2022-12-29T12:18:29;99644.00;;;14.90;100.00
10881;BME280;5493;48.884;8.338;2022-12-29T12:21:04;99627.44;;;14.91;100.00
10881;BME280;5493;48.884;8.338;2022-12-29T12:23:38;99631.22;;;14.85;100.00
10881;BME280;5493;48.884;8.338;2022-12-29T12:26:11;99648.97;;;15.13;100.00
10881;BME280;5493;48.884;8.338;2022-12-29T12:28:45;99644.53;;;14.92;100.00
10881;BME280;5493;48.884;8.338;2022-12-29T12:31:21;99634.06;;;15.10;100.00
10881;BME280;5493;48.884;8.338;2022-12-29T12:33:53;99639.56;;;15.25;100.00
10881;BME280;5493;48.884;8.338;2022-12-29T12:36:38;99623.22;;;15.15;100.00
10881;BME280;5493;48.884;8.338;2022-12-29T12:39:18;99636.03;;;15.30;100.00
10881;BME280;5493;48.884;8.338;2022-12-29T12:41:53;99624.06;;;15.26;100.00
10881;BME280;5493;48.884;8.338;2022-12-29T12:44:28;99627.88;;;15.25;100.00
10881;BME280;5493;48.884;8.338;2022-12-29T12:47:10;99627.53;;;15.16;100.00
10881;BME280;5493;48.884;8.338;2022-12-29T12:50:01;99624.19;;;14.94;100.00
10881;BME280;5493;48.884;8.338;2022-12-29T12:52:42;99629.19;;;15.17;100.00
10881;BME280;5493;48.884;8.338;2022-12-29T12:55:30;99629.41;;;15.06;100.00
10881;BME280;5493;48.884;8.338;2022-12-29T12:58:08;99621.06;;;15.27;100.00
10881;BME280;5493;48.884;8.338;2022-12-29T13:00:46;99625.31;;;15.03;100.00
10881;BME280;5493;48.884;8.338;2022-12-29T13:03:22;99618.88;;;15.14;100.00
10881;BME280;5493;48.884;8.338;2022-12-29T13:06:15;99610.91;;;14.98;100.00
10881;BME280;5493;48.884;8.338;2022-12-29T13:09:03;99609.78;;;14.89;100.00
10881;BME280;5493;48.884;8.338;2022-12-29T13:11:46;99628.25;;;14.87;100.00
10881;BME280;5493;48.884;8.338;2022-12-29T13:14:32;99625.44;;;14.71;100.00
10881;BME280;5493;48.884;8.338;2022-12-29T13:17:10;99630.28;;;14.64;100.00
10881;BME280;5493;48.884;8.338;2022-12-29T13:19:41;99638.84;;;14.51;100.00